Terminal Aerodrome Forecast
Issued by NWS Raleigh/Durham, NC

Home | Current Version | Previous Version | Text Only | Print | Product List | Glossary On
Versions: 1 2 3 4 5 6 7 8 9 10 11 12 13 14 15 16 17 18 19 20 21 22 23 24 25 26 27 28 29 30 31 32 33 34 35 36 37 38 39 40 41
000
FTUS42 KRAH 280201 AAB
TAFGSO
TAF AMD
KGSO 280201Z 2802/2824 18011KT P6SM BKN050 OVC250
      TEMPO 2802/2804 VRB15G25KT 2SM -TSRA BKN005 BKN025CB OVC035
     FM280700 21005KT P6SM BKN005
      TEMPO 2813/2815 BKN015
     FM281500 21007KT P6SM BKN015
     FM281800 21010KT P6SM SCT030=

USA.gov is the U.S. government's official web portal to all federal, state and local government web resources and services.